createdAt,value
2019-05-14T00:01:16.308Z,2.70
2019-05-14T00:03:18.721Z,3.10
2019-05-14T00:09:25.940Z,2.65
2019-05-14T00:11:28.018Z,2.80
2019-05-14T00:13:32.303Z,2.80
2019-05-14T00:15:34.781Z,3.12
2019-05-14T00:17:36.865Z,2.55
2019-05-14T00:19:41.368Z,3.10
2019-05-14T00:21:43.212Z,2.92
2019-05-14T00:23:45.546Z,2.52
2019-05-14T00:27:51.856Z,2.95
2019-05-14T00:29:54.086Z,3.10
2019-05-14T00:31:56.106Z,3.10
2019-05-14T00:33:58.571Z,3.02
2019-05-14T00:36:02.049Z,3.20
2019-05-14T00:38:04.377Z,2.80
2019-05-14T00:40:06.507Z,2.80
2019-05-14T00:42:08.513Z,3.10
2019-05-14T00:44:10.588Z,3.40
2019-05-14T00:46:12.887Z,3.70
2019-05-14T00:48:15.245Z,2.83
2019-05-14T00:52:19.069Z,3.40
2019-05-14T00:54:21.611Z,3.55
2019-05-14T00:56:23.815Z,3.10
2019-05-14T00:58:25.973Z,3.20
2019-05-14T01:00:28.034Z,3.10
2019-05-14T01:02:31.879Z,3.30
2019-05-14T01:04:34.211Z,3.65
2019-05-14T01:06:36.221Z,3.52
2019-05-14T01:08:38.251Z,3.10
2019-05-14T01:10:41.747Z,3.30
2019-05-14T01:12:43.922Z,3.35
2019-05-14T01:14:46.382Z,2.92
2019-05-14T01:16:48.734Z,3.47
2019-05-14T01:20:53.580Z,3.50
2019-05-14T01:22:55.759Z,3.17
2019-05-14T01:24:57.759Z,3.33
2019-05-14T01:27:01.599Z,3.37
2019-05-14T01:29:03.965Z,2.95
2019-05-14T01:31:06.116Z,2.90
2019-05-14T01:33:08.409Z,2.92
2019-05-14T01:35:12.031Z,2.70
2019-05-14T01:37:14.514Z,2.75
2019-05-14T01:39:16.544Z,3.05
2019-05-14T01:41:18.688Z,2.75
2019-05-14T01:43:22.073Z,2.65
2019-05-14T01:45:28.128Z,3.02
2019-05-14T01:47:28.349Z,2.92
2019-05-14T01:51:33.939Z,2.85
2019-05-14T01:53:36.288Z,2.95
2019-05-14T01:57:42.242Z,3.30
2019-05-14T01:59:44.553Z,2.98
2019-05-14T02:01:46.592Z,3.15
2019-05-14T02:03:48.687Z,3.17
2019-05-14T02:05:52.124Z,2.95
2019-05-14T02:07:54.485Z,2.92
2019-05-14T02:09:56.490Z,3.20
2019-05-14T02:11:58.837Z,3.00
2019-05-14T02:16:04.332Z,3.12
2019-05-14T02:18:06.553Z,3.08
2019-05-14T02:20:12.366Z,2.95
2019-05-14T02:22:14.070Z,3.08
2019-05-14T02:24:16.229Z,2.70
2019-05-14T02:26:18.240Z,2.80
2019-05-14T02:28:22.083Z,3.15
2019-05-14T02:30:36.046Z,2.67
2019-05-14T02:32:29.874Z,3.17
2019-05-14T02:34:32.382Z,3.00
2019-05-14T02:38:38.912Z,3.20
2019-05-14T02:40:40.701Z,2.80
2019-05-14T02:44:45.278Z,2.85
2019-05-14T02:46:50.257Z,3.00
2019-05-14T02:48:51.650Z,2.90
2019-05-14T02:52:55.451Z,2.80
2019-05-14T02:54:59.715Z,2.92
2019-05-14T02:57:01.519Z,3.00
2019-05-14T02:59:05.955Z,2.98
2019-05-14T03:01:09.438Z,3.35
2019-05-14T03:03:11.669Z,3.42
2019-05-14T03:05:13.826Z,2.80
2019-05-14T03:07:19.160Z,3.15
2019-05-14T03:09:20.722Z,3.12
2019-05-14T03:11:22.871Z,2.85
2019-05-14T03:13:24.965Z,3.52
2019-05-14T03:15:29.146Z,3.30
2019-05-14T03:17:30.958Z,3.47
2019-05-14T03:19:33.311Z,3.50
2019-05-14T03:21:35.289Z,2.92
2019-05-14T03:23:39.232Z,4.00
2019-05-14T03:25:41.556Z,2.87
2019-05-14T03:27:43.591Z,3.08
2019-05-14T03:29:45.681Z,3.33
2019-05-14T03:31:52.466Z,3.85
2019-05-14T03:33:53.089Z,3.45
2019-05-14T03:36:01.451Z,3.35
2019-05-14T03:38:00.388Z,3.00
2019-05-14T03:40:03.488Z,3.37
2019-05-14T03:42:09.196Z,3.77
2019-05-14T03:44:10.707Z,3.58
2019-05-14T03:48:14.567Z,3.17
2019-05-14T03:50:19.196Z,3.58
2019-05-14T03:52:21.469Z,3.40
2019-05-14T03:54:23.426Z,4.10
2019-05-14T03:56:25.877Z,3.80
2019-05-14T04:00:51.185Z,3.50
2019-05-14T04:02:53.730Z,3.90
2019-05-14T04:07:00.402Z,3.72
2019-05-14T04:09:05.118Z,3.67
2019-05-14T04:11:09.640Z,3.95
2019-05-14T04:13:13.348Z,3.47
2019-05-14T04:15:19.070Z,3.83
2019-05-14T04:17:32.154Z,3.98
2019-05-14T04:19:29.570Z,3.83
2019-05-14T04:21:32.592Z,4.17
2019-05-14T04:23:39.993Z,3.77
2019-05-14T04:25:42.384Z,3.70
2019-05-14T04:27:49.389Z,3.72
2019-05-14T04:29:53.127Z,3.60
2019-05-14T04:32:00.166Z,4.05
2019-05-14T04:34:02.514Z,4.65
2019-05-14T04:36:04.534Z,4.10
2019-05-14T04:38:09.630Z,3.90
2019-05-14T04:40:12.630Z,4.08
2019-05-14T04:42:14.717Z,3.52
2019-05-14T04:44:19.180Z,3.90
2019-05-14T04:46:21.032Z,4.22
2019-05-14T04:48:31.708Z,4.10
2019-05-14T04:50:29.656Z,4.17
2019-05-14T04:52:31.423Z,4.08
2019-05-14T04:54:33.814Z,4.08
2019-05-14T04:56:40.021Z,4.00
2019-05-14T04:58:41.509Z,3.62
2019-05-14T05:02:49.460Z,3.60
2019-05-14T05:04:52.165Z,4.10
2019-05-14T05:06:54.177Z,3.87
2019-05-14T05:08:56.250Z,4.05
2019-05-14T05:11:00.124Z,4.15
2019-05-14T05:13:02.653Z,4.17
2019-05-14T05:15:04.759Z,3.70
2019-05-14T05:17:09.170Z,3.55
2019-05-14T05:19:10.835Z,4.10
2019-05-14T05:21:12.895Z,3.55
2019-05-14T05:23:15.215Z,3.98
2019-05-14T05:25:18.871Z,3.60
2019-05-14T05:27:21.160Z,4.08
2019-05-14T05:29:23.493Z,4.20
2019-05-14T05:31:25.549Z,4.45
2019-05-14T05:33:29.345Z,4.05
2019-05-14T05:35:31.996Z,3.62
2019-05-14T05:39:35.632Z,3.72
2019-05-14T05:41:38.514Z,3.87
2019-05-14T05:43:40.698Z,3.92
2019-05-14T05:45:43.174Z,3.90
2019-05-14T05:48:31.451Z,3.30
2019-05-14T05:50:33.481Z,3.45
2019-05-14T05:52:35.600Z,3.42
2019-05-14T05:54:38.525Z,3.62
2019-05-14T05:56:40.657Z,3.72
2019-05-14T05:58:42.665Z,3.65
2019-05-14T06:00:45.698Z,3.58
2019-05-14T06:02:48.883Z,3.62
2019-05-14T06:04:51.630Z,3.02
2019-05-14T06:06:53.849Z,3.12
2019-05-14T06:08:58.326Z,3.08
2019-05-14T06:11:01.884Z,2.83
2019-05-14T06:13:04.097Z,2.80
2019-05-14T06:15:08.682Z,3.42
2019-05-14T06:17:10.623Z,3.35
2019-05-14T06:19:13.062Z,3.75
2019-05-14T06:21:15.270Z,3.50
2019-05-14T06:23:18.925Z,3.27
2019-05-14T06:25:21.351Z,3.05
2019-05-14T06:29:25.005Z,3.40
2019-05-14T06:31:29.067Z,3.65
2019-05-14T06:33:31.197Z,3.25
2019-05-14T06:35:33.463Z,3.60
2019-05-14T06:37:35.599Z,3.55
2019-05-14T06:39:39.087Z,3.67
2019-05-14T06:41:42.958Z,3.20
2019-05-14T06:43:48.620Z,3.15
2019-05-14T06:45:50.508Z,3.25
2019-05-14T06:47:53.044Z,3.60
2019-05-14T06:49:55.340Z,3.80
2019-05-14T06:51:59.350Z,3.62
2019-05-14T06:54:01.429Z,3.65
2019-05-14T06:56:03.481Z,3.33
2019-05-14T06:58:09.016Z,3.25
2019-05-14T07:00:11.042Z,3.58
2019-05-14T07:02:13.459Z,3.50
2019-05-14T07:06:18.632Z,3.10
2019-05-14T07:08:21.379Z,3.30
2019-05-14T07:12:25.345Z,2.83
2019-05-14T07:14:28.293Z,3.15
2019-05-14T07:16:30.489Z,2.98
2019-05-14T07:18:45.478Z,3.00
2019-05-14T07:20:39.120Z,2.90
2019-05-14T07:22:41.492Z,2.85
2019-05-14T07:24:43.529Z,3.05
2019-05-14T07:26:45.537Z,2.80
2019-05-14T07:28:48.770Z,2.70
2019-05-14T07:30:51.281Z,2.40
2019-05-14T07:32:53.512Z,2.33
2019-05-14T07:34:55.755Z,2.67
2019-05-14T07:36:58.695Z,2.33
2019-05-14T07:39:01.370Z,2.72
2019-05-14T07:41:04.967Z,2.40
2019-05-14T07:43:09.012Z,2.67
2019-05-14T07:45:12.224Z,2.40
2019-05-14T07:47:14.424Z,2.30
2019-05-14T07:49:18.412Z,2.10
2019-05-14T07:51:20.555Z,2.27
2019-05-14T07:53:35.146Z,2.20
2019-05-14T07:55:28.907Z,2.50
2019-05-14T07:57:31.449Z,2.12
2019-05-14T08:01:35.177Z,2.22
2019-05-14T08:03:38.290Z,2.47
2019-05-14T08:05:40.634Z,2.30
2019-05-14T08:07:42.780Z,2.55
2019-05-14T08:09:45.263Z,2.40
2019-05-14T08:11:48.147Z,2.60
2019-05-14T08:13:50.480Z,2.40
2019-05-14T08:15:52.577Z,2.65
2019-05-14T08:17:54.654Z,2.52
2019-05-14T08:19:58.347Z,2.75
2019-05-14T08:22:00.935Z,2.60
2019-05-14T08:24:03.070Z,2.90
2019-05-14T08:26:05.239Z,2.58
2019-05-14T08:28:08.134Z,2.87
2019-05-14T08:30:11.096Z,2.42
2019-05-14T08:32:13.082Z,2.70
2019-05-14T08:34:15.329Z,2.65
2019-05-14T08:36:18.733Z,2.60
2019-05-14T08:40:23.361Z,2.33
2019-05-14T08:44:29.375Z,2.47
2019-05-14T08:46:31.798Z,2.60
2019-05-14T08:48:34.003Z,2.47
2019-05-14T08:50:36.021Z,2.33
2019-05-14T08:52:39.319Z,2.50
2019-05-14T08:54:42.694Z,2.40
2019-05-14T08:56:44.823Z,2.12
2019-05-14T08:58:49.478Z,2.27
2019-05-14T09:00:51.439Z,2.02
2019-05-14T09:02:53.631Z,2.40
2019-05-14T09:05:02.784Z,2.05
2019-05-14T09:07:01.009Z,2.22
2019-05-14T09:09:05.397Z,1.87
2019-05-14T09:11:10.010Z,1.87
2019-05-14T09:13:11.748Z,1.55
2019-05-14T09:15:13.947Z,1.67
2019-05-14T09:17:18.495Z,1.75
2019-05-14T09:19:20.849Z,1.90
2019-05-14T09:21:23.089Z,1.37
2019-05-14T09:23:28.364Z,1.82
2019-05-14T09:25:29.846Z,1.70
2019-05-14T09:29:33.933Z,1.40
2019-05-14T09:31:38.791Z,1.70
2019-05-14T09:33:39.902Z,1.55
2019-05-14T09:35:42.174Z,1.95
2019-05-14T09:37:44.158Z,1.65
2019-05-14T09:39:48.651Z,2.20
2019-05-14T09:41:50.525Z,1.60
2019-05-14T09:43:52.591Z,1.50
2019-05-14T09:45:54.785Z,1.92
2019-05-14T09:47:58.547Z,2.00
2019-05-14T09:50:15.302Z,1.75
2019-05-14T09:52:04.541Z,1.90
2019-05-14T09:54:08.573Z,1.80
2019-05-14T09:56:11.196Z,2.00
2019-05-14T09:58:13.214Z,1.98
2019-05-14T10:00:18.701Z,2.02
2019-05-14T10:02:22.882Z,2.10
2019-05-14T10:04:25.093Z,2.22
2019-05-14T10:06:28.494Z,1.77
2019-05-14T10:08:31.064Z,2.00
2019-05-14T10:10:33.100Z,2.08
2019-05-14T10:12:40.871Z,2.05
2019-05-14T10:14:40.626Z,2.42
2019-05-14T10:16:42.625Z,2.08
2019-05-14T10:18:45.640Z,2.10
2019-05-14T10:20:49.386Z,1.80
2019-05-14T10:22:51.912Z,2.02
2019-05-14T10:24:54.190Z,1.80
2019-05-14T10:26:58.553Z,1.92
2019-05-14T10:29:00.789Z,2.20
2019-05-14T10:31:03.861Z,2.05
2019-05-14T10:33:10.687Z,2.08
2019-05-14T10:35:10.134Z,2.05
2019-05-14T10:39:14.434Z,1.60
2019-05-14T10:41:18.325Z,1.95
2019-05-14T10:43:20.644Z,1.90
2019-05-14T10:45:25.698Z,2.00
2019-05-14T10:47:29.200Z,2.10
2019-05-14T10:49:31.696Z,1.80
2019-05-14T10:51:38.930Z,1.60
2019-05-14T10:53:40.811Z,2.08
2019-05-14T10:55:43.344Z,2.20
2019-05-14T10:59:47.424Z,1.90
2019-05-14T11:01:51.524Z,1.90
2019-05-14T11:03:53.547Z,1.90
2019-05-14T11:05:55.549Z,2.10
2019-05-14T11:07:58.677Z,2.20
2019-05-14T11:10:00.872Z,2.00
2019-05-14T11:12:02.905Z,2.50
2019-05-14T11:14:08.844Z,2.10
2019-05-14T11:16:10.869Z,2.47
2019-05-14T11:18:13.150Z,2.27
2019-05-14T11:20:19.135Z,2.10
2019-05-14T11:22:21.436Z,2.08
2019-05-14T11:24:23.478Z,1.60
2019-05-14T11:26:25.738Z,2.12
2019-05-14T11:28:28.527Z,2.33
2019-05-14T11:30:31.660Z,2.10
2019-05-14T11:32:34.008Z,1.65
2019-05-14T11:34:38.773Z,1.95
2019-05-14T11:36:40.010Z,2.00
2019-05-14T11:38:42.361Z,2.12
2019-05-14T11:40:44.568Z,2.22
2019-05-14T11:42:49.303Z,2.00
2019-05-14T11:44:50.895Z,1.95
2019-05-14T11:46:57.877Z,1.95
2019-05-14T11:48:59.418Z,2.10
2019-05-14T11:51:01.674Z,1.90
2019-05-14T11:53:03.693Z,2.17
2019-05-14T11:55:09.053Z,2.17
2019-05-14T11:57:12.026Z,2.08
2019-05-14T11:59:14.403Z,2.12
2019-05-14T12:01:18.943Z,2.30
2019-05-14T12:03:20.689Z,2.05
2019-05-14T12:05:24.042Z,2.20
2019-05-14T12:07:28.039Z,2.40
2019-05-14T12:09:30.347Z,2.20
2019-05-14T12:11:32.339Z,2.17
2019-05-14T12:13:34.500Z,2.33
2019-05-14T12:15:38.798Z,2.30
2019-05-14T12:17:41.096Z,3.02
2019-05-14T12:21:59.945Z,2.42
2019-05-14T12:23:50.664Z,2.47
2019-05-14T12:25:52.804Z,2.02
2019-05-14T12:27:55.359Z,2.95
2019-05-14T12:32:01.397Z,2.75
2019-05-14T12:36:05.461Z,2.70
2019-05-14T12:38:09.897Z,3.50
2019-05-14T12:40:12.028Z,3.15
2019-05-14T12:42:14.117Z,3.25
2019-05-14T12:44:16.302Z,2.65
2019-05-14T12:46:20.132Z,3.05
2019-05-14T12:48:22.723Z,3.30
2019-05-14T12:50:24.900Z,2.60
2019-05-14T12:52:29.543Z,2.90
2019-05-14T12:54:31.213Z,2.45
2019-05-14T12:56:33.274Z,3.10
2019-05-14T12:58:42.008Z,2.70
2019-05-14T13:00:39.838Z,2.62
2019-05-14T13:04:43.804Z,2.50
2019-05-14T13:06:48.403Z,2.85
2019-05-14T13:08:50.311Z,2.72
2019-05-14T13:10:54.207Z,2.98
2019-05-14T13:12:58.684Z,3.05
2019-05-14T13:15:00.395Z,2.95
2019-05-14T13:17:02.436Z,2.95
2019-05-14T13:19:05.632Z,2.95
2019-05-14T13:21:07.931Z,3.20
2019-05-14T13:23:10.239Z,3.08
2019-05-14T13:25:12.532Z,3.30
2019-05-14T13:27:15.219Z,3.05
2019-05-14T13:31:20.664Z,2.65
2019-05-14T13:33:22.943Z,3.45
2019-05-14T13:35:25.205Z,2.98
2019-05-14T13:37:28.778Z,2.92
2019-05-14T13:39:31.185Z,2.92
2019-05-14T13:41:33.303Z,3.00
2019-05-14T13:43:39.010Z,3.02
2019-05-14T13:45:40.977Z,2.95
2019-05-14T13:47:43.314Z,3.35
2019-05-14T13:49:45.311Z,3.30
2019-05-14T13:51:49.036Z,3.22
2019-05-14T13:53:51.470Z,3.77
2019-05-14T13:55:57.478Z,3.42
2019-05-14T13:57:59.849Z,3.98
2019-05-14T14:00:02.144Z,3.17
2019-05-14T14:02:09.590Z,3.50
2019-05-14T14:04:15.027Z,3.70
2019-05-14T14:06:15.293Z,4.00
2019-05-14T14:08:19.307Z,3.67
2019-05-14T14:10:21.675Z,3.75
2019-05-14T14:12:25.420Z,3.58
2019-05-14T14:14:29.167Z,3.52
2019-05-14T14:16:31.752Z,4.53
2019-05-14T14:18:33.877Z,3.85
2019-05-14T14:20:36.020Z,3.75
2019-05-14T14:22:40.055Z,3.67
2019-05-14T14:24:42.543Z,4.00
2019-05-14T14:26:44.588Z,3.65
2019-05-14T14:28:49.336Z,3.50
2019-05-14T14:30:51.168Z,3.30
2019-05-14T14:32:53.210Z,2.95
2019-05-14T14:34:55.633Z,3.67
2019-05-14T14:36:59.336Z,3.52
2019-05-14T14:39:04.246Z,3.95
2019-05-14T14:41:09.743Z,3.83
2019-05-14T14:43:10.536Z,3.22
2019-05-14T14:45:13.378Z,3.60
2019-05-14T14:47:15.636Z,3.40
2019-05-14T14:49:19.206Z,3.08
2019-05-14T14:51:21.506Z,3.00
2019-05-14T14:53:41.530Z,3.45
2019-05-14T14:55:30.566Z,3.30
2019-05-14T14:57:31.734Z,3.52
2019-05-14T14:59:34.094Z,3.33
2019-05-14T15:01:39.848Z,3.20
2019-05-14T15:03:40.229Z,3.60
2019-05-14T15:05:42.965Z,3.50
2019-05-14T15:09:48.712Z,2.87
2019-05-14T15:11:50.764Z,2.77
2019-05-14T15:13:52.724Z,3.33
2019-05-14T15:15:54.715Z,3.17
2019-05-14T15:17:57.569Z,2.90
2019-05-14T15:19:59.755Z,3.40
2019-05-14T15:22:01.778Z,3.15
2019-05-14T15:24:13.782Z,3.10
2019-05-14T15:26:11.611Z,2.98
2019-05-14T15:28:11.958Z,3.12
2019-05-14T15:30:14.350Z,2.95
2019-05-14T15:32:19.640Z,3.10
2019-05-14T15:34:20.476Z,3.60
2019-05-14T15:36:22.629Z,3.20
2019-05-14T15:38:24.824Z,3.35
2019-05-14T15:40:28.911Z,3.17
2019-05-14T15:42:31.226Z,3.33
2019-05-14T15:44:47.661Z,3.70
2019-05-14T15:46:41.570Z,3.47
2019-05-14T15:48:41.795Z,3.42
2019-05-14T15:52:45.435Z,3.52
2019-05-14T15:54:50.466Z,3.52
2019-05-14T15:56:51.651Z,3.52
2019-05-14T15:58:54.119Z,3.60
2019-05-14T16:01:00.898Z,3.60
2019-05-14T16:03:00.574Z,3.12
2019-05-14T16:05:02.665Z,3.65
2019-05-14T16:07:05.416Z,3.30
2019-05-14T16:11:11.306Z,3.35
2019-05-14T16:13:13.510Z,3.58
2019-05-14T16:15:15.637Z,3.08
2019-05-14T16:17:23.686Z,3.20
2019-05-14T16:19:22.073Z,3.35
2019-05-14T16:21:24.091Z,3.12
2019-05-14T16:23:28.198Z,3.45
2019-05-14T16:25:30.794Z,3.75
2019-05-14T16:29:41.231Z,2.70
2019-05-14T16:31:43.393Z,4.00
2019-05-14T16:33:43.087Z,2.95
2019-05-14T16:35:45.066Z,3.10
2019-05-14T16:37:48.455Z,3.00
2019-05-14T16:39:50.641Z,3.08
2019-05-14T16:41:52.666Z,3.42
2019-05-14T16:43:55.105Z,3.45
2019-05-14T16:45:59.766Z,3.27
2019-05-14T16:48:01.451Z,3.15
2019-05-14T16:50:04.479Z,3.12
2019-05-14T16:52:09.109Z,3.98
2019-05-14T16:54:10.962Z,3.25
2019-05-14T16:56:13.093Z,3.30
2019-05-14T16:58:15.152Z,3.00
2019-05-14T17:00:18.515Z,3.10
2019-05-14T17:02:20.925Z,3.27
2019-05-14T17:06:25.040Z,2.72
2019-05-14T17:08:28.434Z,3.40
2019-05-14T17:10:31.783Z,3.30
2019-05-14T17:12:48.201Z,3.05
2019-05-14T17:14:38.490Z,3.52
2019-05-14T17:16:40.757Z,3.17
2019-05-14T17:18:42.754Z,3.52
2019-05-14T17:20:45.032Z,2.77
2019-05-14T17:22:48.714Z,3.20
2019-05-14T17:24:50.865Z,3.00
2019-05-14T17:26:53.054Z,3.00
2019-05-14T17:28:55.143Z,3.60
2019-05-14T17:30:59.977Z,3.15
2019-05-14T17:33:02.624Z,3.27
2019-05-14T17:35:04.660Z,2.95
2019-05-14T17:37:08.924Z,2.87
2019-05-14T17:39:11.294Z,3.20
2019-05-14T17:41:13.391Z,3.98
2019-05-14T17:43:15.378Z,3.37
2019-05-14T17:45:17.850Z,2.90
2019-05-14T17:49:22.016Z,2.83
2019-05-14T17:51:24.329Z,2.80
2019-05-14T17:55:43.153Z,2.90
2019-05-14T17:57:35.263Z,2.70
2019-05-14T17:59:39.013Z,2.77
2019-05-14T18:01:41.198Z,3.00
2019-05-14T18:03:43.472Z,2.65
2019-05-14T18:05:45.453Z,3.00
2019-05-14T18:07:48.299Z,3.00
2019-05-14T18:09:50.776Z,2.85
2019-05-14T18:11:52.952Z,2.83
2019-05-14T18:13:55.057Z,2.62
2019-05-14T18:15:58.089Z,2.65
2019-05-14T18:18:00.242Z,2.95
2019-05-14T18:20:02.415Z,3.25
2019-05-14T18:22:04.781Z,3.15
2019-05-14T18:24:07.978Z,2.80
2019-05-14T18:26:10.049Z,2.90
2019-05-14T18:28:12.306Z,2.72
2019-05-14T18:30:14.724Z,2.90
2019-05-14T18:34:20.650Z,2.75
2019-05-14T18:36:23.001Z,3.02
2019-05-14T18:38:25.041Z,2.80
2019-05-14T18:40:28.137Z,3.20
2019-05-14T18:42:31.473Z,2.87
2019-05-14T18:44:33.579Z,2.90
2019-05-14T18:46:35.738Z,2.98
2019-05-14T18:48:37.836Z,3.20
2019-05-14T18:50:39.850Z,3.17
2019-05-14T18:52:42.169Z,3.02
2019-05-14T18:54:44.385Z,2.92
2019-05-14T18:56:48.766Z,3.05
2019-05-14T18:58:51.843Z,3.50
2019-05-14T19:00:54.213Z,3.33
2019-05-14T19:02:56.699Z,3.55
2019-05-14T19:05:00.101Z,4.03
2019-05-14T19:07:02.166Z,3.12
2019-05-14T19:09:09.935Z,3.62
2019-05-14T19:11:10.757Z,3.70
2019-05-14T19:13:12.872Z,3.55
2019-05-14T19:15:14.995Z,3.83
2019-05-14T19:17:18.718Z,3.70
2019-05-14T19:19:22.324Z,3.62
2019-05-14T19:21:24.333Z,3.98
2019-05-14T19:23:28.706Z,3.72
2019-05-14T19:25:30.609Z,3.80
2019-05-14T19:27:32.628Z,3.70
2019-05-14T19:29:35.978Z,3.52
2019-05-14T19:31:38.610Z,3.70
2019-05-14T19:33:41.740Z,3.47
2019-05-14T19:35:44.412Z,3.83
2019-05-14T19:37:48.683Z,3.90
2019-05-14T19:39:50.346Z,4.12
2019-05-14T19:41:52.550Z,4.20
2019-05-14T19:43:54.644Z,3.98
2019-05-14T19:45:58.908Z,4.05
2019-05-14T19:48:00.983Z,3.83
2019-05-14T19:50:03.633Z,4.37
2019-05-14T19:52:05.629Z,4.55
2019-05-14T19:54:08.250Z,4.30
2019-05-14T19:56:10.672Z,4.08
2019-05-14T20:00:21.080Z,4.83
2019-05-14T20:02:23.442Z,3.87
2019-05-14T20:04:25.439Z,4.35
2019-05-14T20:06:29.426Z,4.37
2019-05-14T20:08:31.689Z,4.10
2019-05-14T20:10:34.118Z,4.62
2019-05-14T20:12:36.283Z,4.37
2019-05-14T20:14:38.437Z,4.53
2019-05-14T20:16:40.520Z,3.83
2019-05-14T20:18:42.616Z,4.28
2019-05-14T20:20:44.739Z,4.20
2019-05-14T20:22:49.867Z,4.53
2019-05-14T20:24:51.522Z,4.45
2019-05-14T20:28:59.072Z,4.17
2019-05-14T20:31:01.494Z,4.53
2019-05-14T20:35:06.011Z,4.50
2019-05-14T20:37:08.627Z,4.47
2019-05-14T20:39:12.372Z,4.08
2019-05-14T20:41:14.783Z,4.37
2019-05-14T20:43:18.657Z,4.20
2019-05-14T20:45:20.787Z,4.08
2019-05-14T20:47:23.135Z,4.33
2019-05-14T20:49:25.473Z,3.80
2019-05-14T20:51:30.252Z,4.50
2019-05-14T20:53:31.702Z,4.30
2019-05-14T20:55:33.813Z,4.55
2019-05-14T20:57:38.339Z,4.70
2019-05-14T20:59:39.798Z,4.17
2019-05-14T21:01:42.054Z,4.45
2019-05-14T21:03:44.190Z,5.08
2019-05-14T21:05:48.860Z,6.10
2019-05-14T21:07:50.722Z,4.53
2019-05-14T21:09:52.873Z,5.00
2019-05-14T21:11:55.463Z,3.92
2019-05-14T21:16:00.471Z,4.47
2019-05-14T21:18:02.531Z,4.20
2019-05-14T21:20:05.506Z,4.22
2019-05-14T21:22:08.417Z,4.30
2019-05-14T21:24:10.916Z,5.10
2019-05-14T21:26:12.944Z,4.10
2019-05-14T21:28:14.971Z,4.47
2019-05-14T21:30:18.963Z,4.65
2019-05-14T21:34:33.275Z,4.30
2019-05-14T21:38:37.926Z,4.15
2019-05-14T21:40:41.426Z,4.33
2019-05-14T21:44:45.264Z,4.60
2019-05-14T21:46:48.315Z,4.70
2019-05-14T21:48:50.408Z,5.58
2019-05-14T21:50:52.422Z,4.37
2019-05-14T21:52:54.707Z,4.67
2019-05-14T21:57:00.535Z,4.15
2019-05-14T21:59:02.855Z,4.80
2019-05-14T22:01:07.895Z,4.65
2019-05-14T22:03:10.384Z,5.45
2019-05-14T22:05:13.222Z,5.05
2019-05-14T22:07:15.306Z,4.37
2019-05-14T22:09:17.367Z,4.90
2019-05-14T22:11:28.309Z,4.70
2019-05-14T22:13:30.937Z,4.95
2019-05-14T22:15:33.081Z,4.97
2019-05-14T22:17:38.029Z,5.10
2019-05-14T22:19:40.018Z,5.05
2019-05-14T22:21:42.101Z,4.80
2019-05-14T22:23:44.780Z,4.95
2019-05-14T22:25:48.710Z,4.83
2019-05-14T22:27:52.279Z,4.90
2019-05-14T22:31:58.573Z,4.72
2019-05-14T22:34:00.200Z,5.22
2019-05-14T22:36:02.379Z,5.10
2019-05-14T22:38:04.513Z,4.75
2019-05-14T22:40:07.248Z,4.97
2019-05-14T22:42:09.580Z,5.42
2019-05-14T22:44:11.790Z,4.78
2019-05-14T22:46:13.796Z,4.35
2019-05-14T22:48:18.465Z,4.37
2019-05-14T22:50:20.103Z,4.72
2019-05-14T22:52:22.267Z,5.28
2019-05-14T22:54:24.538Z,4.65
2019-05-14T22:56:28.067Z,5.40
2019-05-14T22:58:30.488Z,4.55
2019-05-14T23:00:32.522Z,4.85
2019-05-14T23:02:34.922Z,4.58
2019-05-14T23:04:38.491Z,4.55
2019-05-14T23:06:41.128Z,3.90
2019-05-14T23:10:44.777Z,4.90
2019-05-14T23:12:48.850Z,5.08
2019-05-14T23:14:51.112Z,4.78
2019-05-14T23:16:53.168Z,4.85
2019-05-14T23:18:55.402Z,4.90
2019-05-14T23:20:59.046Z,4.87
2019-05-14T23:23:01.353Z,4.78
2019-05-14T23:25:03.859Z,5.37
2019-05-14T23:29:09.704Z,5.15
2019-05-14T23:31:11.880Z,5.37
2019-05-14T23:33:13.979Z,4.97
2019-05-14T23:35:18.518Z,5.08
2019-05-14T23:37:20.229Z,4.72
2019-05-14T23:39:23.280Z,4.95
2019-05-14T23:41:25.307Z,4.70
2019-05-14T23:43:28.820Z,4.87
2019-05-14T23:45:31.251Z,4.97
2019-05-14T23:47:33.271Z,4.70
2019-05-14T23:49:35.451Z,4.58
2019-05-14T23:51:38.538Z,5.25
2019-05-14T23:53:41.145Z,5.20
2019-05-14T23:55:43.595Z,5.03
2019-05-14T23:59:49.363Z,4.95
